createdAt,value
2022-09-16T00:00:57.388Z,97283.73
2022-09-16T00:02:12.899Z,97282.66
2022-09-16T00:03:17.794Z,97283.75
2022-09-16T00:04:19.670Z,97279.49
2022-09-16T00:05:22.088Z,97283.39
2022-09-16T00:06:27.423Z,97283.77
2022-09-16T00:07:30.333Z,97281.80
2022-09-16T00:08:32.265Z,97283.77
2022-09-16T00:09:34.163Z,97280.89
2022-09-16T00:10:36.157Z,97286.12
2022-09-16T00:11:37.871Z,97284.34
2022-09-16T00:12:40.592Z,97287.29
2022-09-16T00:13:42.342Z,97284.61
2022-09-16T00:14:44.129Z,97286.67
2022-09-16T00:15:49.182Z,97286.80
2022-09-16T00:16:50.852Z,97290.14
2022-09-16T00:17:52.613Z,97290.94
2022-09-16T00:18:59.873Z,97291.21
2022-09-16T00:20:01.905Z,97293.03
2022-09-16T00:21:09.225Z,97292.46
2022-09-16T00:22:10.989Z,97298.08
2022-09-16T00:23:12.683Z,97296.33
2022-09-16T00:24:16.314Z,97296.02
2022-09-16T00:25:18.204Z,97299.69
2022-09-16T00:26:20.062Z,97299.98
2022-09-16T00:27:21.751Z,97299.52
2022-09-16T00:28:24.736Z,97305.03
2022-09-16T00:29:26.577Z,97305.59
2022-09-16T00:30:28.207Z,97307.33
2022-09-16T00:31:29.950Z,97304.79
2022-09-16T00:32:31.869Z,97307.02
2022-09-16T00:33:33.552Z,97308.23
2022-09-16T00:34:35.252Z,97307.88
2022-09-16T00:35:36.886Z,97308.80
2022-09-16T00:36:38.523Z,97307.48
2022-09-16T00:37:40.145Z,97307.54
2022-09-16T00:38:42.625Z,97304.77
2022-09-16T00:39:44.564Z,97301.65
2022-09-16T00:40:49.587Z,97305.39
2022-09-16T00:41:51.407Z,97302.30
2022-09-16T00:42:53.081Z,97301.73
2022-09-16T00:44:01.893Z,97301.27
2022-09-16T00:45:14.153Z,97300.24
2022-09-16T00:46:20.659Z,97299.98
2022-09-16T00:47:47.334Z,97299.42
2022-09-16T00:48:50.317Z,97298.62
2022-09-16T00:49:59.384Z,97299.12
2022-09-16T00:51:08.028Z,97301.02
2022-09-16T00:52:10.391Z,97299.62
2022-09-16T00:53:23.120Z,97298.55
2022-09-16T00:54:26.857Z,97299.06
2022-09-16T00:55:35.465Z,97303.24
2022-09-16T00:56:43.290Z,97302.00
2022-09-16T00:57:46.708Z,97299.73
2022-09-16T00:58:55.227Z,97303.90
2022-09-16T00:59:58.503Z,97307.63
2022-09-16T01:01:01.112Z,97306.89
2022-09-16T01:02:15.981Z,97308.00
2022-09-16T01:03:18.974Z,97308.02
2022-09-16T01:04:35.310Z,97309.68
2022-09-16T01:05:38.749Z,97307.29
2022-09-16T01:06:40.815Z,97308.39
2022-09-16T01:07:45.959Z,97309.43
2022-09-16T01:08:50.134Z,97312.56
2022-09-16T01:09:51.795Z,97310.73
2022-09-16T01:10:53.568Z,97310.95
2022-09-16T01:11:55.283Z,97312.73
2022-09-16T01:13:03.454Z,97312.64
2022-09-16T01:14:25.167Z,97312.77
2022-09-16T01:15:33.982Z,97306.36
2022-09-16T01:16:45.049Z,97302.87
2022-09-16T01:18:05.210Z,97309.71
2022-09-16T01:19:20.824Z,97307.81
2022-09-16T01:21:01.887Z,97309.84
2022-09-16T01:22:20.724Z,97312.15
2022-09-16T01:23:37.188Z,97312.60
2022-09-16T01:24:54.457Z,97311.13
2022-09-16T01:26:28.993Z,97314.86
2022-09-16T01:28:07.691Z,97309.70
2022-09-16T01:29:35.878Z,97312.73
2022-09-16T01:30:41.090Z,97311.23
2022-09-16T01:32:13.087Z,97312.29
2022-09-16T01:33:31.603Z,97315.63
2022-09-16T01:35:04.752Z,97314.00
2022-09-16T01:36:15.410Z,97317.00
2022-09-16T01:37:46.102Z,97311.30
2022-09-16T01:39:03.233Z,97312.06
2022-09-16T01:40:20.149Z,97315.64
2022-09-16T01:42:09.579Z,97313.35
2022-09-16T01:43:13.818Z,97313.58
2022-09-16T01:44:28.926Z,97314.59
2022-09-16T01:45:38.252Z,97316.67
2022-09-16T01:46:48.357Z,97317.02
2022-09-16T01:48:05.527Z,97316.05
2022-09-16T01:49:20.375Z,97316.27
2022-09-16T01:50:29.387Z,97320.30
2022-09-16T01:51:49.602Z,97317.55
2022-09-16T01:53:00.115Z,97319.80
2022-09-16T01:54:15.921Z,97317.55
2022-09-16T01:55:32.583Z,97316.11
2022-09-16T01:56:50.305Z,97319.67
2022-09-16T01:58:16.963Z,97319.45
2022-09-16T01:59:41.543Z,97319.55
2022-09-16T02:00:47.442Z,97317.73
2022-09-16T02:02:04.954Z,97314.86
2022-09-16T02:03:32.338Z,97313.64
2022-09-16T02:04:42.613Z,97311.95
2022-09-16T02:06:06.691Z,97316.41
2022-09-16T02:07:12.980Z,97316.64
2022-09-16T02:08:22.719Z,97316.52
2022-09-16T02:09:34.898Z,97315.12
2022-09-16T02:10:50.968Z,97310.95
2022-09-16T02:11:58.551Z,97312.21
2022-09-16T02:13:08.924Z,97311.56
2022-09-16T02:14:20.030Z,97312.32
2022-09-16T02:15:26.449Z,97313.86
2022-09-16T02:16:55.095Z,97317.00
2022-09-16T02:18:05.129Z,97314.73
2022-09-16T02:19:15.720Z,97314.52
2022-09-16T02:20:25.837Z,97314.85
2022-09-16T02:21:33.382Z,97315.79
2022-09-16T02:22:41.728Z,97314.98
2022-09-16T02:23:59.519Z,97314.58
2022-09-16T02:25:05.395Z,97316.20
2022-09-16T02:26:12.479Z,97316.67
2022-09-16T02:27:21.699Z,97316.22
2022-09-16T02:28:30.100Z,97316.55
2022-09-16T02:29:46.768Z,97315.63
2022-09-16T02:30:55.465Z,97315.61
2022-09-16T02:32:02.505Z,97315.97
2022-09-16T02:33:09.699Z,97319.40
2022-09-16T02:34:17.559Z,97317.50
2022-09-16T02:35:22.028Z,97319.86
2022-09-16T02:36:27.173Z,97319.05
2022-09-16T02:37:50.235Z,97317.73
2022-09-16T02:39:00.122Z,97321.34
2022-09-16T02:40:10.542Z,97320.83
2022-09-16T02:41:14.873Z,97318.84
2022-09-16T02:42:17.521Z,97318.20
2022-09-16T02:43:19.889Z,97317.91
2022-09-16T02:44:21.766Z,97317.76
2022-09-16T02:45:47.940Z,97314.78
2022-09-16T02:47:04.530Z,97315.38
2022-09-16T02:48:29.161Z,97316.62
2022-09-16T02:49:54.111Z,97317.61
2022-09-16T02:51:29.130Z,97319.71
2022-09-16T02:52:47.043Z,97314.54
2022-09-16T02:54:22.911Z,97318.30
2022-09-16T02:55:54.805Z,97319.34
2022-09-16T02:56:57.482Z,97317.84
2022-09-16T02:57:59.338Z,97320.05
2022-09-16T02:59:04.014Z,97318.48
2022-09-16T03:00:06.900Z,97321.79
2022-09-16T03:01:13.666Z,97321.29
2022-09-16T03:02:15.452Z,97319.40
2022-09-16T03:03:18.421Z,97318.98
2022-09-16T03:04:20.547Z,97321.30
2022-09-16T03:05:30.287Z,97320.83
2022-09-16T03:06:36.053Z,97320.18
2022-09-16T03:07:41.396Z,97317.92
2022-09-16T03:08:45.247Z,97320.56
2022-09-16T03:09:49.912Z,97321.52
2022-09-16T03:10:53.880Z,97319.30
2022-09-16T03:12:12.394Z,97321.41
2022-09-16T03:13:36.524Z,97317.19
2022-09-16T03:14:59.453Z,97314.64
2022-09-16T03:16:17.338Z,97317.53
2022-09-16T03:17:34.367Z,97318.85
2022-09-16T03:18:58.354Z,97320.60
2022-09-16T03:20:12.550Z,97319.02
2022-09-16T03:21:23.069Z,97320.96
2022-09-16T03:22:47.438Z,97324.05
2022-09-16T03:23:56.272Z,97331.33
2022-09-16T03:25:19.431Z,97333.02
2022-09-16T03:26:43.202Z,97334.55
2022-09-16T03:27:52.703Z,97331.15
2022-09-16T03:29:12.557Z,97327.96
2022-09-16T03:30:14.407Z,97330.08
2022-09-16T03:31:28.899Z,97326.35
2022-09-16T03:32:45.202Z,97319.60
2022-09-16T03:34:07.853Z,97332.52
2022-09-16T03:35:28.031Z,97330.75
2022-09-16T03:36:44.563Z,97329.13
2022-09-16T03:37:48.217Z,97328.02
2022-09-16T03:38:51.565Z,97327.42
2022-09-16T03:39:57.663Z,97324.75
2022-09-16T03:40:59.474Z,97327.15
2022-09-16T03:42:08.124Z,97324.63
2022-09-16T03:43:15.998Z,97331.63
2022-09-16T03:44:18.329Z,97326.72
2022-09-16T03:45:22.079Z,97330.69
2022-09-16T03:46:25.219Z,97331.56
2022-09-16T03:47:26.868Z,97333.80
2022-09-16T03:48:28.548Z,97331.80
2022-09-16T03:49:30.469Z,97338.80
2022-09-16T03:50:32.161Z,97335.42
2022-09-16T03:51:33.809Z,97341.23
2022-09-16T03:52:35.482Z,97345.13
2022-09-16T03:53:37.085Z,97343.25
2022-09-16T03:54:39.087Z,97343.91
2022-09-16T03:55:40.829Z,97336.74
2022-09-16T03:56:42.422Z,97339.89
2022-09-16T03:57:44.073Z,97342.81
2022-09-16T03:58:48.136Z,97340.45
2022-09-16T03:59:49.765Z,97340.39
2022-09-16T04:00:51.959Z,97338.88
2022-09-16T04:01:54.039Z,97338.38
2022-09-16T04:02:56.306Z,97338.02
2022-09-16T04:03:57.963Z,97341.38
2022-09-16T04:04:59.797Z,97340.65
2022-09-16T04:06:01.634Z,97338.46
2022-09-16T04:07:03.530Z,97343.09
2022-09-16T04:08:05.128Z,97347.06
2022-09-16T04:09:08.320Z,97344.42
2022-09-16T04:10:12.455Z,97345.34
2022-09-16T04:11:14.323Z,97343.21
2022-09-16T04:12:16.031Z,97342.56
2022-09-16T04:13:17.639Z,97337.08
2022-09-16T04:14:20.285Z,97338.89
2022-09-16T04:15:22.246Z,97339.38
2022-09-16T04:16:24.099Z,97340.58
2022-09-16T04:17:25.790Z,97338.77
2022-09-16T04:18:27.905Z,97335.41
2022-09-16T04:19:29.621Z,97337.63
2022-09-16T04:20:31.234Z,97334.21
2022-09-16T04:21:33.509Z,97334.00
2022-09-16T04:22:35.263Z,97338.80
2022-09-16T04:23:36.886Z,97342.61
2022-09-16T04:24:38.495Z,97347.16
2022-09-16T04:25:41.760Z,97349.58
2022-09-16T04:26:43.762Z,97349.52
2022-09-16T04:27:45.341Z,97350.71
2022-09-16T04:28:47.994Z,97348.98
2022-09-16T04:29:49.866Z,97356.55
2022-09-16T04:30:52.167Z,97359.26
2022-09-16T04:31:55.880Z,97359.52
2022-09-16T04:32:57.535Z,97360.12
2022-09-16T04:34:02.150Z,97362.73
2022-09-16T04:35:03.935Z,97358.02
2022-09-16T04:36:13.854Z,97358.76
2022-09-16T04:37:15.767Z,97360.51
2022-09-16T04:38:17.394Z,97358.58
2022-09-16T04:39:19.367Z,97361.59
2022-09-16T04:40:21.063Z,97361.10
2022-09-16T04:41:27.098Z,97358.89
2022-09-16T04:42:29.015Z,97363.28
2022-09-16T04:43:31.121Z,97360.45
2022-09-16T04:44:32.771Z,97361.92
2022-09-16T04:45:34.363Z,97362.66
2022-09-16T04:46:36.082Z,97368.02
2022-09-16T04:47:37.807Z,97367.98
2022-09-16T04:48:39.659Z,97366.86
2022-09-16T04:49:41.338Z,97366.54
2022-09-16T04:50:43.071Z,97364.83
2022-09-16T04:51:44.698Z,97359.53
2022-09-16T04:52:46.457Z,97358.58
2022-09-16T04:53:49.501Z,97356.56
2022-09-16T04:54:51.211Z,97353.36
2022-09-16T04:55:52.854Z,97355.95
2022-09-16T04:56:54.498Z,97359.46
2022-09-16T04:57:56.190Z,97357.87
2022-09-16T04:59:03.590Z,97361.09
2022-09-16T05:00:05.879Z,97365.94
2022-09-16T05:01:12.821Z,97367.21
2022-09-16T05:02:14.551Z,97368.23
2022-09-16T05:03:16.871Z,97371.41
2022-09-16T05:04:18.661Z,97370.60
2022-09-16T05:05:21.452Z,97366.18
2022-09-16T05:06:26.282Z,97371.80
2022-09-16T05:07:29.649Z,97368.23
2022-09-16T05:08:33.148Z,97366.68
2022-09-16T05:09:35.394Z,97363.14
2022-09-16T05:10:37.002Z,97360.13
2022-09-16T05:11:40.177Z,97364.00
2022-09-16T05:12:41.789Z,97354.92
2022-09-16T05:13:43.991Z,97357.81
2022-09-16T05:14:45.586Z,97354.73
2022-09-16T05:15:50.946Z,97355.38
2022-09-16T05:16:53.799Z,97356.11
2022-09-16T05:17:55.456Z,97352.95
2022-09-16T05:19:00.166Z,97355.94
2022-09-16T05:20:02.112Z,97356.10
2022-09-16T05:21:06.666Z,97356.96
2022-09-16T05:22:08.293Z,97357.95
2022-09-16T05:23:10.062Z,97357.06
2022-09-16T05:24:13.610Z,97360.60
2022-09-16T05:25:15.352Z,97351.67
2022-09-16T05:26:23.273Z,97355.64
2022-09-16T05:27:27.940Z,97361.20
2022-09-16T05:28:29.854Z,97360.64
2022-09-16T05:29:31.472Z,97355.78
2022-09-16T05:30:33.536Z,97351.89
2022-09-16T05:31:38.962Z,97352.38
2022-09-16T05:32:40.611Z,97355.61
2022-09-16T05:33:44.901Z,97355.27
2022-09-16T05:34:46.678Z,97354.40
2022-09-16T05:35:48.401Z,97355.36
2022-09-16T05:36:53.823Z,97354.02
2022-09-16T05:37:55.459Z,97357.56
2022-09-16T05:39:22.051Z,97355.77
2022-09-16T05:40:19.823Z,97360.77
2022-09-16T05:41:21.523Z,97358.44
2022-09-16T05:42:23.303Z,97364.58
2022-09-16T05:43:25.089Z,97361.30
2022-09-16T05:44:28.751Z,97358.52
2022-09-16T05:45:32.574Z,97354.66
2022-09-16T05:46:35.036Z,97356.98
2022-09-16T05:47:36.696Z,97358.42
2022-09-16T05:48:38.278Z,97355.61
2022-09-16T05:49:39.946Z,97363.27
2022-09-16T05:50:41.601Z,97360.92
2022-09-16T05:51:43.311Z,97360.45
2022-09-16T05:52:44.943Z,97361.91
2022-09-16T05:53:49.052Z,97357.15
2022-09-16T05:54:51.083Z,97359.42
2022-09-16T05:56:06.117Z,97356.27
2022-09-16T05:57:07.714Z,97359.43
2022-09-16T05:58:09.423Z,97359.82
2022-09-16T05:59:12.482Z,97359.60
2022-09-16T06:00:14.703Z,97358.38
2022-09-16T06:01:19.567Z,97354.52
2022-09-16T06:02:21.206Z,97354.86
2022-09-16T06:03:22.865Z,97354.55
2022-09-16T06:04:24.535Z,97351.54
2022-09-16T06:05:26.144Z,97354.31
2022-09-16T06:06:34.437Z,97353.99
2022-09-16T06:07:36.037Z,97356.62
2022-09-16T06:08:37.778Z,97359.48
2022-09-16T06:09:39.370Z,97361.80
2022-09-16T06:10:42.109Z,97362.67
2022-09-16T06:11:47.375Z,97363.33
2022-09-16T06:12:49.000Z,97357.00
2022-09-16T06:13:56.137Z,97362.86
2022-09-16T06:14:57.783Z,97361.19
2022-09-16T06:16:00.570Z,97362.83
2022-09-16T06:17:02.753Z,97356.15
2022-09-16T06:18:06.543Z,97355.64
2022-09-16T06:19:13.550Z,97357.48
2022-09-16T06:20:16.137Z,97358.65
2022-09-16T06:21:18.721Z,97359.56
2022-09-16T06:22:20.334Z,97358.31
2022-09-16T06:23:22.689Z,97356.52
2022-09-16T06:24:24.439Z,97357.64
2022-09-16T06:25:26.055Z,97357.06
2022-09-16T06:26:28.450Z,97358.73
2022-09-16T06:27:31.840Z,97360.75
2022-09-16T06:28:33.953Z,97354.05
2022-09-16T06:29:35.600Z,97352.92
2022-09-16T06:30:38.279Z,97360.14
2022-09-16T06:31:40.579Z,97353.05
2022-09-16T06:32:42.241Z,97353.13
2022-09-16T06:33:44.593Z,97349.64
2022-09-16T06:34:46.511Z,97348.25
2022-09-16T06:35:48.166Z,97346.24
2022-09-16T06:36:49.967Z,97352.31
2022-09-16T06:37:54.041Z,97350.67
2022-09-16T06:38:55.876Z,97353.49
2022-09-16T06:39:57.549Z,97350.41
2022-09-16T06:41:00.930Z,97351.13
2022-09-16T06:42:02.814Z,97348.89
2022-09-16T06:43:12.206Z,97351.80
2022-09-16T06:44:13.972Z,97353.17
2022-09-16T06:45:15.577Z,97354.71
2022-09-16T06:46:21.064Z,97354.99
2022-09-16T06:47:22.788Z,97355.85
2022-09-16T06:48:24.417Z,97360.68
2022-09-16T06:49:26.375Z,97361.94
2022-09-16T06:50:28.075Z,97359.64
2022-09-16T06:51:31.387Z,97359.10
2022-09-16T06:52:33.190Z,97357.92
2022-09-16T06:53:34.935Z,97362.87
2022-09-16T06:54:36.526Z,97362.95
2022-09-16T06:55:38.166Z,97365.41
2022-09-16T06:56:41.477Z,97368.40
2022-09-16T06:57:43.427Z,97372.08
2022-09-16T06:58:51.761Z,97366.62
2022-09-16T06:59:53.410Z,97366.67
2022-09-16T07:00:55.709Z,97372.59
2022-09-16T07:01:57.469Z,97373.69
2022-09-16T07:03:02.266Z,97371.08
2022-09-16T07:04:10.961Z,97373.65
2022-09-16T07:05:13.075Z,97376.88
2022-09-16T07:06:16.680Z,97374.20
2022-09-16T07:07:18.510Z,97374.44
2022-09-16T07:08:20.182Z,97380.23
2022-09-16T07:09:22.279Z,97375.63
2022-09-16T07:10:25.224Z,97376.45
2022-09-16T07:11:26.973Z,97374.65
2022-09-16T07:12:28.993Z,97379.51
2022-09-16T07:13:31.318Z,97377.59
2022-09-16T07:14:32.943Z,97383.64
2022-09-16T07:15:39.253Z,97379.31
2022-09-16T07:16:52.803Z,97382.93
2022-09-16T07:17:55.347Z,97381.02
2022-09-16T07:19:01.136Z,97383.20
2022-09-16T07:20:03.373Z,97383.48
2022-09-16T07:21:07.790Z,97385.67
2022-09-16T07:22:11.420Z,97381.33
2022-09-16T07:23:13.038Z,97377.85
2022-09-16T07:24:15.431Z,97380.50
2022-09-16T07:25:17.315Z,97380.75
2022-09-16T07:26:22.124Z,97380.50
2022-09-16T07:27:23.794Z,97380.24
2022-09-16T07:28:25.463Z,97383.38
2022-09-16T07:29:27.581Z,97388.66
2022-09-16T07:30:30.983Z,97383.60
2022-09-16T07:31:36.988Z,97386.98
2022-09-16T07:32:38.615Z,97385.73
2022-09-16T07:33:47.672Z,97379.88
2022-09-16T07:34:49.379Z,97383.60
2022-09-16T07:35:51.211Z,97384.60
2022-09-16T07:36:52.909Z,97383.61
2022-09-16T07:37:54.850Z,97385.02
2022-09-16T07:38:58.914Z,97384.46
2022-09-16T07:40:00.583Z,97387.23
2022-09-16T07:41:07.865Z,97385.74
2022-09-16T07:42:09.764Z,97382.09
2022-09-16T07:43:11.926Z,97390.42
2022-09-16T07:44:16.313Z,97386.70
2022-09-16T07:45:17.962Z,97389.19
2022-09-16T07:46:20.818Z,97386.70
2022-09-16T07:47:23.083Z,97389.53
2022-09-16T07:48:25.242Z,97388.62
2022-09-16T07:49:26.979Z,97392.92
2022-09-16T07:50:28.627Z,97389.64
2022-09-16T07:51:31.618Z,97388.30
2022-09-16T07:52:33.241Z,97389.44
2022-09-16T07:53:35.446Z,97384.72
2022-09-16T07:54:37.352Z,97386.47
2022-09-16T07:55:39.033Z,97389.11
2022-09-16T07:56:42.551Z,97388.71
2022-09-16T07:57:44.187Z,97390.59
2022-09-16T07:58:47.469Z,97394.73
2022-09-16T07:59:49.186Z,97397.21
2022-09-16T08:00:50.893Z,97389.79
2022-09-16T08:01:52.876Z,97391.44
2022-09-16T08:02:57.248Z,97389.35
2022-09-16T08:04:00.475Z,97385.75
2022-09-16T08:05:02.200Z,97389.85
2022-09-16T08:06:25.126Z,97383.75
2022-09-16T08:07:26.817Z,97388.48
2022-09-16T08:08:28.455Z,97385.71
2022-09-16T08:09:41.163Z,97383.60
2022-09-16T08:10:59.483Z,97386.50
2022-09-16T08:12:04.550Z,97387.36
2022-09-16T08:13:07.810Z,97391.55
2022-09-16T08:14:09.403Z,97389.91
2022-09-16T08:15:11.265Z,97386.95
2022-09-16T08:16:19.379Z,97388.95
2022-09-16T08:17:21.513Z,97388.25
2022-09-16T08:18:23.130Z,97382.90
2022-09-16T08:19:25.038Z,97379.79
2022-09-16T08:20:28.220Z,97378.21
2022-09-16T08:21:30.216Z,97380.41
2022-09-16T08:22:32.025Z,97375.85
2022-09-16T08:23:34.946Z,97375.33
2022-09-16T08:24:36.662Z,97377.94
2022-09-16T08:25:38.289Z,97374.25
2022-09-16T08:26:40.386Z,97377.23
2022-09-16T08:27:42.025Z,97374.29
2022-09-16T08:29:04.931Z,97381.63
2022-09-16T08:30:10.218Z,97385.73
2022-09-16T08:31:12.661Z,97387.52
2022-09-16T08:32:14.693Z,97388.86
2022-09-16T08:33:20.998Z,97393.33
2022-09-16T08:34:22.769Z,97392.12
2022-09-16T08:35:25.598Z,97394.66
2022-09-16T08:36:27.447Z,97390.80
2022-09-16T08:37:29.128Z,97387.81
2022-09-16T08:38:32.513Z,97388.61
2022-09-16T08:39:34.477Z,97387.38
2022-09-16T08:40:37.216Z,97388.44
2022-09-16T08:41:52.607Z,97391.22
2022-09-16T08:43:17.791Z,97393.80
2022-09-16T08:44:38.816Z,97392.27
2022-09-16T08:45:49.158Z,97392.89
2022-09-16T08:46:59.477Z,97392.97
2022-09-16T08:48:13.150Z,97396.88
2022-09-16T08:49:44.024Z,97395.81
2022-09-16T08:50:51.462Z,97391.33
2022-09-16T08:51:55.562Z,97392.27
2022-09-16T08:53:03.148Z,97390.82
2022-09-16T08:54:27.349Z,97392.08
2022-09-16T08:55:46.707Z,97390.08
2022-09-16T08:56:49.737Z,97388.42
2022-09-16T08:58:11.613Z,97390.47
2022-09-16T08:59:20.402Z,97389.42
2022-09-16T09:00:22.117Z,97391.34
2022-09-16T09:01:29.895Z,97386.83
2022-09-16T09:02:51.204Z,97382.15
2022-09-16T09:03:54.208Z,97383.27
2022-09-16T09:04:56.051Z,97387.42
2022-09-16T09:06:00.154Z,97386.63
2022-09-16T09:07:29.066Z,97384.50
2022-09-16T09:08:44.409Z,97384.98
2022-09-16T09:10:24.752Z,97384.65
2022-09-16T09:11:43.726Z,97389.22
2022-09-16T09:13:47.543Z,97391.16
2022-09-16T09:15:11.946Z,97388.06
2022-09-16T09:16:41.085Z,97390.02
2022-09-16T09:18:00.501Z,97388.88
2022-09-16T09:19:25.690Z,97392.73
2022-09-16T09:20:30.045Z,97386.97
2022-09-16T09:22:00.250Z,97391.23
2022-09-16T09:23:29.759Z,97391.60
2022-09-16T09:24:48.314Z,97395.26
2022-09-16T09:26:03.777Z,97396.02
2022-09-16T09:27:22.225Z,97404.48
2022-09-16T09:29:01.054Z,97393.21
2022-09-16T09:30:24.345Z,97399.57
2022-09-16T09:31:34.838Z,97398.48
2022-09-16T09:32:56.548Z,97400.17
2022-09-16T09:34:29.232Z,97399.75
2022-09-16T09:35:51.428Z,97399.17
2022-09-16T09:37:05.867Z,97394.76
2022-09-16T09:38:35.984Z,97395.31
2022-09-16T09:39:54.052Z,97393.85
2022-09-16T09:41:11.709Z,97398.04
2022-09-16T09:42:29.637Z,97398.26
2022-09-16T09:44:52.158Z,97399.35
2022-09-16T09:46:04.725Z,97398.01
2022-09-16T09:47:19.984Z,97394.64
2022-09-16T09:48:45.174Z,97400.17
2022-09-16T09:49:51.881Z,97398.70
2022-09-16T09:50:53.885Z,97399.70
2022-09-16T09:52:04.373Z,97396.58
2022-09-16T09:53:12.263Z,97394.55
2022-09-16T09:54:22.797Z,97396.95
2022-09-16T09:55:31.482Z,97396.41
2022-09-16T09:56:45.988Z,97393.44
2022-09-16T09:58:05.185Z,97394.38
2022-09-16T09:59:24.932Z,97398.07
2022-09-16T10:00:26.684Z,97393.55
2022-09-16T10:01:28.556Z,97396.83
2022-09-16T10:02:30.345Z,97393.17
2022-09-16T10:03:32.531Z,97388.83
2022-09-16T10:04:39.194Z,97391.27
2022-09-16T10:05:41.685Z,97395.64
2022-09-16T10:06:46.098Z,97394.97
2022-09-16T10:07:49.566Z,97391.20
2022-09-16T10:08:54.156Z,97394.09
2022-09-16T10:10:14.382Z,97397.06
2022-09-16T10:11:22.954Z,97399.15
2022-09-16T10:12:31.355Z,97398.19
2022-09-16T10:13:33.169Z,97402.56
2022-09-16T10:14:37.917Z,97400.61
2022-09-16T10:15:40.599Z,97401.44
2022-09-16T10:16:50.809Z,97398.10
2022-09-16T10:17:53.867Z,97396.42
2022-09-16T10:19:16.981Z,97398.17
2022-09-16T10:20:35.062Z,97395.73
2022-09-16T10:21:47.705Z,97391.70
2022-09-16T10:23:20.509Z,97391.48
2022-09-16T10:24:32.969Z,97385.00
2022-09-16T10:25:35.384Z,97387.98
2022-09-16T10:26:41.142Z,97385.73
2022-09-16T10:27:42.820Z,97382.45
2022-09-16T10:29:23.262Z,97381.36
2022-09-16T10:30:25.468Z,97385.42
2022-09-16T10:31:35.327Z,97384.23
2022-09-16T10:32:48.391Z,97384.25
2022-09-16T10:33:50.403Z,97386.17
2022-09-16T10:34:52.443Z,97388.04
2022-09-16T10:36:00.809Z,97383.85
2022-09-16T10:37:12.799Z,97386.05
2022-09-16T10:38:22.260Z,97391.17
2022-09-16T10:39:26.774Z,97391.56
2022-09-16T10:40:29.171Z,97393.16
2022-09-16T10:41:42.395Z,97388.50
2022-09-16T10:42:48.107Z,97392.14
2022-09-16T10:44:07.322Z,97385.80
2022-09-16T10:45:20.158Z,97389.83
2022-09-16T10:46:22.078Z,97387.23
2022-09-16T10:47:28.203Z,97392.68
2022-09-16T10:48:34.324Z,97392.15
2022-09-16T10:49:46.187Z,97387.56
2022-09-16T10:50:58.618Z,97388.42
2022-09-16T10:52:22.939Z,97385.15
2022-09-16T10:53:30.757Z,97383.06
2022-09-16T10:54:32.461Z,97381.65
2022-09-16T10:55:38.672Z,97381.41
2022-09-16T10:56:49.601Z,97384.73
2022-09-16T10:57:53.196Z,97382.33
2022-09-16T10:59:12.325Z,97378.32
2022-09-16T11:00:21.331Z,97375.92
2022-09-16T11:01:57.917Z,97378.70
2022-09-16T11:03:15.044Z,97381.17
2022-09-16T11:04:31.419Z,97378.38
2022-09-16T11:05:47.829Z,97374.02
2022-09-16T11:06:55.224Z,97373.41
2022-09-16T11:08:08.666Z,97366.58
2022-09-16T11:09:25.595Z,97372.83
2022-09-16T11:10:56.057Z,97370.30
2022-09-16T11:12:33.600Z,97373.91
2022-09-16T11:13:58.044Z,97374.28
2022-09-16T11:15:28.053Z,97369.08
2022-09-16T11:16:29.716Z,97371.13
2022-09-16T11:18:19.897Z,97370.20
2022-09-16T11:20:03.750Z,97373.28
2022-09-16T11:21:40.600Z,97374.61
2022-09-16T11:23:16.321Z,97372.84
2022-09-16T11:24:27.266Z,97377.48
2022-09-16T11:25:38.412Z,97368.98
2022-09-16T11:26:56.193Z,97367.38
2022-09-16T11:28:00.805Z,97364.67
2022-09-16T11:29:29.139Z,97364.34
2022-09-16T11:30:40.925Z,97367.98
2022-09-16T11:31:51.355Z,97364.85
2022-09-16T11:33:37.438Z,97370.49
2022-09-16T11:35:02.560Z,97367.63
2022-09-16T11:36:54.910Z,97371.55
2022-09-16T11:38:08.319Z,97371.38
2022-09-16T11:39:27.971Z,97369.41
2022-09-16T11:40:55.139Z,97370.02
2022-09-16T11:42:04.810Z,97371.68
2022-09-16T11:43:47.720Z,97373.24
2022-09-16T11:45:19.946Z,97378.08
2022-09-16T11:46:55.713Z,97374.81
2022-09-16T11:48:15.710Z,97378.42
2022-09-16T11:49:45.127Z,97377.71
2022-09-16T11:50:58.282Z,97372.64
2022-09-16T11:52:06.309Z,97372.88
2022-09-16T11:53:29.586Z,97364.84
2022-09-16T11:54:59.113Z,97369.17
2022-09-16T11:56:11.407Z,97374.69
2022-09-16T11:57:24.774Z,97372.47
2022-09-16T11:58:45.295Z,97372.18
2022-09-16T12:00:00.328Z,97375.14
2022-09-16T12:01:14.123Z,97373.88
2022-09-16T12:02:40.088Z,97375.36
2022-09-16T12:03:58.701Z,97365.75
2022-09-16T12:05:13.823Z,97367.61
2022-09-16T12:06:20.558Z,97365.77
2022-09-16T12:07:57.245Z,97367.46
2022-09-16T12:09:12.358Z,97365.02
2022-09-16T12:10:31.117Z,97360.02
2022-09-16T12:11:45.849Z,97360.16
2022-09-16T12:13:00.766Z,97363.70
2022-09-16T12:14:18.823Z,97360.68
2022-09-16T12:15:30.078Z,97361.02
2022-09-16T12:16:39.510Z,97359.54
2022-09-16T12:17:52.438Z,97357.63
2022-09-16T12:19:02.182Z,97361.11
2022-09-16T12:20:16.533Z,97358.07
2022-09-16T12:21:30.037Z,97360.11
2022-09-16T12:22:43.201Z,97360.72
2022-09-16T12:23:59.616Z,97362.22
2022-09-16T12:25:08.913Z,97363.02
2022-09-16T12:26:17.889Z,97361.92
2022-09-16T12:27:37.750Z,97360.69
2022-09-16T12:28:46.274Z,97363.34
2022-09-16T12:30:00.509Z,97364.62
2022-09-16T12:31:23.777Z,97364.84
2022-09-16T12:32:50.706Z,97365.90
2022-09-16T12:34:18.509Z,97361.89
2022-09-16T12:36:43.868Z,97362.95
2022-09-16T12:37:51.501Z,97357.73
2022-09-16T12:38:53.298Z,97357.94
2022-09-16T12:39:55.408Z,97356.86
2022-09-16T12:41:00.519Z,97352.04
2022-09-16T12:42:12.444Z,97348.86
2022-09-16T12:43:31.982Z,97342.17
2022-09-16T12:45:08.206Z,97341.27
2022-09-16T12:46:34.801Z,97347.64
2022-09-16T12:47:52.073Z,97342.52
2022-09-16T12:49:15.455Z,97334.10
2022-09-16T12:50:27.816Z,97338.18
2022-09-16T12:52:04.010Z,97334.10
2022-09-16T12:53:32.453Z,97328.08
2022-09-16T12:55:08.508Z,97337.45
2022-09-16T12:56:29.523Z,97331.95
2022-09-16T12:57:55.991Z,97332.92
2022-09-16T12:59:22.009Z,97336.09
2022-09-16T13:00:30.941Z,97328.17
2022-09-16T13:01:35.408Z,97336.10
2022-09-16T13:02:46.722Z,97337.11
2022-09-16T13:04:03.316Z,97332.86
2022-09-16T13:05:22.853Z,97332.64
2022-09-16T13:06:34.356Z,97328.28
2022-09-16T13:07:36.933Z,97335.27
2022-09-16T13:08:38.782Z,97331.45
2022-09-16T13:09:41.018Z,97340.91
2022-09-16T13:11:19.288Z,97335.95
2022-09-16T13:13:50.263Z,97337.30
2022-09-16T13:14:56.912Z,97341.77
2022-09-16T13:16:02.124Z,97342.30
2022-09-16T13:17:04.196Z,97339.42
2022-09-16T13:18:17.708Z,97341.19
2022-09-16T13:19:35.247Z,97338.27
2022-09-16T13:20:41.949Z,97336.44
2022-09-16T13:21:45.695Z,97334.74
2022-09-16T13:23:00.253Z,97340.39
2022-09-16T13:24:14.919Z,97344.63
2022-09-16T13:25:35.030Z,97342.79
2022-09-16T13:26:45.425Z,97344.11
2022-09-16T13:28:02.038Z,97339.02
2022-09-16T13:29:03.874Z,97337.59
2022-09-16T13:30:08.238Z,97330.20
2022-09-16T13:31:18.679Z,97329.95
2022-09-16T13:32:38.499Z,97324.84
2022-09-16T13:34:01.886Z,97323.28
2022-09-16T13:35:18.714Z,97327.77
2022-09-16T13:36:20.476Z,97325.35
2022-09-16T13:37:28.412Z,97326.27
2022-09-16T13:38:39.221Z,97330.80